Time;durP1;ratioP1;P1;durP2;ratioP2;P2;SDS_P1;SDS_P2;PMS_P1;PMS_P2;Temp;Humidity;BMP_temperature;BMP_pressure;BME280_temperature;BME280_humidity;BME280_pressure;Samples;Min_cycle;Max_cycle;Signal;HPM_P1;HPM_P2
2021/01/22 00:01:09;;;;;;;17.98;10.55;;;;;;;;;;5034312;28;20067;-70
2021/01/22 00:03:34;;;;;;;21.88;11.63;;;;;;;;;;5034499;28;20037;-70
2021/01/22 00:06:00;;;;;;;23.17;11.43;;;;;;;;;;5034562;28;20076;-70
2021/01/22 00:08:25;;;;;;;21.80;11.35;;;;;;;;;;5034322;28;20057;-69
2021/01/22 00:10:51;;;;;;;21.02;11.38;;;;;;;;;;5034481;28;20064;-70
2021/01/22 00:13:16;;;;;;;21.13;10.95;;;;;;;;;;5032780;28;20032;-69
2021/01/22 00:15:42;;;;;;;22.58;11.18;;;;;;;;;;5034231;28;20026;-69
2021/01/22 00:18:07;;;;;;;19.17;10.60;;;;;;;;;;5033973;28;20531;-69
2021/01/22 00:20:33;;;;;;;23.48;12.38;;;;;;;;;;5032619;28;20429;-68
2021/01/22 00:22:58;;;;;;;33.22;15.73;;;;;;;;;;5034408;28;20487;-68
2021/01/22 00:25:24;;;;;;;26.00;13.32;;;;;;;;;;5033885;28;20031;-68
2021/01/22 00:27:49;;;;;;;20.80;10.27;;;;;;;;;;5033885;28;20120;-69
2021/01/22 00:30:15;;;;;;;26.88;13.23;;;;;;;;;;5033730;28;20017;-69
2021/01/22 00:32:41;;;;;;;28.42;14.25;;;;;;;;;;5033658;28;20476;-69
2021/01/22 00:35:06;;;;;;;49.83;22.83;;;;;;;;;;5033757;28;20017;-69
2021/01/22 00:37:32;;;;;;;43.20;21.42;;;;;;;;;;5033825;28;20388;-69
2021/01/22 00:39:58;;;;;;;40.90;18.98;;;;;;;;;;5033645;28;20032;-69
2021/01/22 00:42:23;;;;;;;36.25;17.00;;;;;;;;;;5033735;28;20163;-69
2021/01/22 00:44:49;;;;;;;41.05;19.67;;;;;;;;;;5032364;28;20017;-69
2021/01/22 00:47:14;;;;;;;37.22;18.30;;;;;;;;;;5033356;28;20032;-69
2021/01/22 00:49:40;;;;;;;31.45;16.60;;;;;;;;;;5033530;28;20021;-69
2021/01/22 00:52:05;;;;;;;36.83;19.58;;;;;;;;;;5032357;28;20060;-69
2021/01/22 00:54:31;;;;;;;27.85;14.75;;;;;;;;;;5032095;28;20097;-69
2021/01/22 00:57:35;;;;;;;21.52;11.15;;;;;;;;;;5031707;28;20567;-69
2021/01/22 01:00:01;;;;;;;21.25;11.02;;;;;;;;;;5031299;28;20040;-70
2021/01/22 01:02:28;;;;;;;26.33;13.65;;;;;;;;;;5025701;28;20037;-70
2021/01/22 01:04:54;;;;;;;31.48;15.88;;;;;;;;;;5032070;28;20373;-70
2021/01/22 01:07:20;;;;;;;31.63;17.33;;;;;;;;;;5032350;28;20024;-70
2021/01/22 01:09:50;;;;;;;26.60;14.67;;;;;;;;;;5031560;28;20048;-70
2021/01/22 01:12:34;;;;;;;29.38;15.40;;;;;;;;;;5033859;28;20175;-70
2021/01/22 01:15:22;;;;;;;27.55;14.82;;;;;;;;;;5033448;28;20123;-70
2021/01/22 01:17:47;;;;;;;25.17;13.65;;;;;;;;;;5033439;28;20077;-70
2021/01/22 01:20:13;;;;;;;26.13;12.70;;;;;;;;;;5033575;28;20471;-70
2021/01/22 01:22:38;;;;;;;28.83;13.70;;;;;;;;;;5033296;28;20037;-70
2021/01/22 01:25:05;;;;;;;24.13;13.25;;;;;;;;;;5032914;28;20060;-70
2021/01/22 01:27:30;;;;;;;20.27;11.48;;;;;;;;;;5032492;28;20030;-70
2021/01/22 01:29:55;;;;;;;18.52;10.77;;;;;;;;;;5033293;28;20021;-70
2021/01/22 01:32:21;;;;;;;23.33;12.27;;;;;;;;;;5033418;28;20033;-70
2021/01/22 01:34:46;;;;;;;20.75;10.75;;;;;;;;;;5033055;28;20029;-70
2021/01/22 01:37:12;;;;;;;22.42;12.75;;;;;;;;;;5032986;28;20021;-70
2021/01/22 01:39:38;;;;;;;22.23;12.00;;;;;;;;;;5033221;28;20025;-70
2021/01/22 01:42:04;;;;;;;20.92;11.45;;;;;;;;;;5033183;28;20057;-70
2021/01/22 01:44:29;;;;;;;23.67;12.55;;;;;;;;;;5032886;28;20057;-68
2021/01/22 01:46:55;;;;;;;19.25;10.57;;;;;;;;;;5031862;28;20101;-68
2021/01/22 01:49:20;;;;;;;20.27;11.18;;;;;;;;;;5032042;28;20009;-69
2021/01/22 01:51:46;;;;;;;17.55;9.98;;;;;;;;;;5033037;28;20036;-70
2021/01/22 01:54:12;;;;;;;18.50;10.00;;;;;;;;;;5033043;28;20021;-70
2021/01/22 01:56:37;;;;;;;16.25;9.10;;;;;;;;;;5032981;28;20407;-70
2021/01/22 01:59:03;;;;;;;16.25;8.48;;;;;;;;;;5031594;28;20029;-70
2021/01/22 02:01:30;;;;;;;13.95;8.25;;;;;;;;;;5032824;28;20029;-71
2021/01/22 02:03:56;;;;;;;14.95;8.10;;;;;;;;;;5032734;28;20104;-70
2021/01/22 02:06:22;;;;;;;15.20;8.35;;;;;;;;;;5032724;28;20468;-71
2021/01/22 02:08:47;;;;;;;12.57;7.63;;;;;;;;;;5032360;28;20038;-71
2021/01/22 02:11:15;;;;;;;13.98;7.75;;;;;;;;;;5031383;28;20373;-70
2021/01/22 02:13:41;;;;;;;14.57;7.90;;;;;;;;;;5032707;28;20373;-71
2021/01/22 02:16:08;;;;;;;14.15;7.60;;;;;;;;;;5031653;28;20419;-70
2021/01/22 02:18:34;;;;;;;14.02;7.80;;;;;;;;;;5036409;28;20364;-69
2021/01/22 02:21:09;;;;;;;16.20;9.45;;;;;;;;;;5036471;28;20456;-69
2021/01/22 02:23:36;;;;;;;13.80;8.10;;;;;;;;;;5035100;28;20044;-69
2021/01/22 02:26:15;;;;;;;13.98;8.27;;;;;;;;;;5036030;28;20075;-69
2021/01/22 02:28:41;;;;;;;11.45;7.25;;;;;;;;;;5036102;28;20022;-69
2021/01/22 02:31:07;;;;;;;10.73;6.65;;;;;;;;;;5036003;28;20096;-69
2021/01/22 02:33:34;;;;;;;8.85;6.45;;;;;;;;;;5034955;28;20040;-71
2021/01/22 02:36:00;;;;;;;10.30;6.90;;;;;;;;;;5035000;28;20030;-71
2021/01/22 02:38:26;;;;;;;12.77;7.38;;;;;;;;;;5036102;28;20120;-71
2021/01/22 02:40:56;;;;;;;12.30;7.05;;;;;;;;;;5034646;28;20056;-71
2021/01/22 02:43:22;;;;;;;10.48;6.18;;;;;;;;;;5036440;28;20038;-70
2021/01/22 02:45:50;;;;;;;10.63;6.57;;;;;;;;;;5035704;28;20014;-70
2021/01/22 02:48:15;;;;;;;11.43;7.43;;;;;;;;;;5034751;28;20025;-70
2021/01/22 02:50:42;;;;;;;11.63;6.95;;;;;;;;;;5035667;28;20040;-70
2021/01/22 02:53:07;;;;;;;11.10;7.30;;;;;;;;;;5036096;28;20033;-70
2021/01/22 02:55:34;;;;;;;9.98;6.90;;;;;;;;;;5017917;28;20033;-70
2021/01/22 02:58:00;;;;;;;10.50;6.43;;;;;;;;;;5017717;28;20447;-71
2021/01/22 03:00:28;;;;;;;11.25;6.85;;;;;;;;;;5035689;28;20029;-71
2021/01/22 03:03:06;;;;;;;11.18;6.55;;;;;;;;;;5035395;28;20424;-70
2021/01/22 03:05:33;;;;;;;9.32;6.25;;;;;;;;;;5034857;28;20484;-70
2021/01/22 03:08:02;;;;;;;10.18;6.47;;;;;;;;;;5034407;28;20032;-70
2021/01/22 03:10:28;;;;;;;11.23;6.45;;;;;;;;;;5035362;28;20049;-70
2021/01/22 03:12:56;;;;;;;9.70;5.93;;;;;;;;;;5034212;28;20037;-70
2021/01/22 03:15:22;;;;;;;9.15;6.22;;;;;;;;;;5035131;28;20099;-70
2021/01/22 03:17:49;;;;;;;9.38;5.65;;;;;;;;;;5035278;28;20026;-70
2021/01/22 03:20:15;;;;;;;8.35;5.90;;;;;;;;;;5034016;28;20120;-70
2021/01/22 03:22:41;;;;;;;9.00;5.70;;;;;;;;;;5033712;28;20387;-69
2021/01/22 03:25:07;;;;;;;11.65;6.00;;;;;;;;;;5034957;28;20029;-70
2021/01/22 03:27:32;;;;;;;9.75;5.43;;;;;;;;;;5033510;28;20029;-69
2021/01/22 03:29:58;;;;;;;8.50;5.07;;;;;;;;;;5035238;28;20029;-69
2021/01/22 03:32:23;;;;;;;8.15;5.03;;;;;;;;;;5034878;28;20026;-69
2021/01/22 03:34:49;;;;;;;8.45;5.40;;;;;;;;;;5033697;28;20033;-69
2021/01/22 03:37:14;;;;;;;13.10;7.60;;;;;;;;;;5033575;28;20021;-69
2021/01/22 03:39:40;;;;;;;11.00;7.38;;;;;;;;;;5035046;28;20075;-69
2021/01/22 03:42:05;;;;;;;13.50;7.88;;;;;;;;;;5034576;28;20025;-69
2021/01/22 03:44:31;;;;;;;12.27;6.93;;;;;;;;;;5033186;28;20044;-69
2021/01/22 03:46:56;;;;;;;11.52;6.43;;;;;;;;;;5034488;28;20021;-70
2021/01/22 03:49:22;;;;;;;11.52;6.53;;;;;;;;;;5034367;28;20022;-68
2021/01/22 03:51:47;;;;;;;8.50;6.40;;;;;;;;;;5033419;28;20028;-68
2021/01/22 03:54:13;;;;;;;10.15;6.28;;;;;;;;;;5034833;28;20029;-68
2021/01/22 03:56:38;;;;;;;11.75;7.00;;;;;;;;;;5033301;28;20112;-68
2021/01/22 03:59:04;;;;;;;14.27;6.60;;;;;;;;;;5034069;28;20036;-68
2021/01/22 04:01:31;;;;;;;14.95;7.63;;;;;;;;;;5034586;28;20044;-68
2021/01/22 04:03:57;;;;;;;13.55;7.45;;;;;;;;;;5034598;28;20029;-68
2021/01/22 04:06:22;;;;;;;14.82;8.05;;;;;;;;;;5034346;28;20032;-68
2021/01/22 04:08:49;;;;;;;11.90;7.22;;;;;;;;;;5033645;28;20040;-68
2021/01/22 04:11:15;;;;;;;12.25;7.53;;;;;;;;;;5034535;28;20049;-68
2021/01/22 04:13:40;;;;;;;13.20;6.97;;;;;;;;;;5034381;28;20044;-68
2021/01/22 04:16:06;;;;;;;9.63;5.90;;;;;;;;;;5034164;28;20022;-68
2021/01/22 04:18:31;;;;;;;9.88;6.53;;;;;;;;;;5034141;28;20029;-68
2021/01/22 04:20:57;;;;;;;12.73;7.43;;;;;;;;;;5034212;28;20578;-68
2021/01/22 04:23:22;;;;;;;11.75;7.90;;;;;;;;;;5033890;28;20546;-69
2021/01/22 04:25:48;;;;;;;18.65;8.40;;;;;;;;;;5033817;28;20029;-70
2021/01/22 04:28:14;;;;;;;16.15;10.05;;;;;;;;;;5033949;28;20099;-70
2021/01/22 04:30:40;;;;;;;15.15;9.57;;;;;;;;;;5033827;28;20104;-69
2021/01/22 04:33:05;;;;;;;19.58;11.68;;;;;;;;;;5034098;28;20021;-69
2021/01/22 04:35:31;;;;;;;14.75;9.95;;;;;;;;;;5032955;28;20075;-69
2021/01/22 04:37:57;;;;;;;15.40;8.88;;;;;;;;;;5034040;28;20025;-69
2021/01/22 04:40:24;;;;;;;26.48;14.15;;;;;;;;;;5031926;28;20117;-69
2021/01/22 04:42:49;;;;;;;17.33;10.35;;;;;;;;;;5032542;28;20095;-69
2021/01/22 04:45:15;;;;;;;20.60;11.65;;;;;;;;;;5033427;28;20029;-69
2021/01/22 04:47:41;;;;;;;23.23;13.85;;;;;;;;;;5033414;28;20029;-69
2021/01/22 04:50:07;;;;;;;26.73;15.85;;;;;;;;;;5033673;28;20025;-68
2021/01/22 04:52:34;;;;;;;26.75;13.95;;;;;;;;;;5032361;28;20116;-69
2021/01/22 04:55:01;;;;;;;40.33;19.88;;;;;;;;;;5033415;28;20404;-69
2021/01/22 04:57:29;;;;;;;37.58;19.35;;;;;;;;;;5033474;28;20033;-69
2021/01/22 04:59:56;;;;;;;36.33;17.70;;;;;;;;;;5033271;28;20033;-69
2021/01/22 05:02:21;;;;;;;31.63;16.42;;;;;;;;;;5032118;28;20108;-69
2021/01/22 05:04:47;;;;;;;32.65;16.25;;;;;;;;;;5031976;28;20108;-68
2021/01/22 05:07:13;;;;;;;25.55;12.95;;;;;;;;;;5033290;28;20116;-68
2021/01/22 05:09:39;;;;;;;19.65;9.35;;;;;;;;;;5032770;28;20053;-68
2021/01/22 05:12:06;;;;;;;21.70;9.45;;;;;;;;;;5033154;28;20072;-68
2021/01/22 05:14:32;;;;;;;14.32;7.63;;;;;;;;;;5033249;28;20479;-68
2021/01/22 05:16:59;;;;;;;13.07;7.15;;;;;;;;;;5032150;28;20026;-68
2021/01/22 05:19:24;;;;;;;12.68;6.90;;;;;;;;;;5033187;28;20471;-68
2021/01/22 05:21:50;;;;;;;13.77;7.53;;;;;;;;;;5033023;28;20056;-68
2021/01/22 05:24:22;;;;;;;13.88;7.50;;;;;;;;;;5031921;28;20017;-68
2021/01/22 05:26:57;;;;;;;18.27;8.73;;;;;;;;;;5033449;28;20036;-68
2021/01/22 05:29:24;;;;;;;25.17;11.75;;;;;;;;;;5031931;28;20132;-68
2021/01/22 05:31:50;;;;;;;32.15;14.93;;;;;;;;;;5033054;28;20096;-68
2021/01/22 05:34:15;;;;;;;34.15;16.70;;;;;;;;;;5033245;28;20112;-68
2021/01/22 05:36:41;;;;;;;18.42;9.93;;;;;;;;;;5033251;28;20032;-68
2021/01/22 05:39:17;;;;;;;11.50;6.63;;;;;;;;;;5032998;28;20034;-68
2021/01/22 05:41:49;;;;;;;7.78;4.90;;;;;;;;;;5033095;28;20025;-68
2021/01/22 05:44:22;;;;;;;6.97;3.90;;;;;;;;;;5033427;28;20136;-68
2021/01/22 05:47:00;;;;;;;6.88;3.88;;;;;;;;;;5033354;28;20033;-68
2021/01/22 05:49:26;;;;;;;6.50;4.22;;;;;;;;;;5032671;28;20052;-69
2021/01/22 05:51:52;;;;;;;5.93;4.00;;;;;;;;;;5036299;28;20480;-68
2021/01/22 05:54:37;;;;;;;8.20;4.38;;;;;;;;;;5036886;28;20083;-69
2021/01/22 05:57:03;;;;;;;9.23;4.80;;;;;;;;;;5035545;28;20018;-69
2021/01/22 05:59:29;;;;;;;16.35;7.68;;;;;;;;;;5036835;28;20159;-69
2021/01/22 06:01:54;;;;;;;25.10;12.50;;;;;;;;;;5036699;28;20033;-69
2021/01/22 06:04:20;;;;;;;34.08;16.08;;;;;;;;;;5036480;28;20468;-68
2021/01/22 06:06:46;;;;;;;39.85;17.00;;;;;;;;;;5035144;28;20415;-68
2021/01/22 06:09:12;;;;;;;38.35;15.65;;;;;;;;;;5035974;28;20172;-68
2021/01/22 06:11:38;;;;;;;54.22;28.77;;;;;;;;;;5030773;28;20108;-69
2021/01/22 06:14:05;;;;;;;41.85;17.90;;;;;;;;;;5034591;28;20208;-69
2021/01/22 06:16:31;;;;;;;23.58;13.52;;;;;;;;;;5034998;28;20040;-69
2021/01/22 06:19:00;;;;;;;23.85;13.45;;;;;;;;;;5035681;28;20467;-69
2021/01/22 06:21:28;;;;;;;41.75;17.83;;;;;;;;;;5036249;28;20108;-69
2021/01/22 06:23:53;;;;;;;24.23;11.35;;;;;;;;;;5036125;28;20100;-68
2021/01/22 06:26:19;;;;;;;50.72;20.13;;;;;;;;;;5036107;28;20460;-68
2021/01/22 06:28:46;;;;;;;27.15;13.45;;;;;;;;;;5036367;28;20025;-68
2021/01/22 06:31:12;;;;;;;29.10;14.75;;;;;;;;;;5035682;28;20080;-68
2021/01/22 06:33:38;;;;;;;36.35;16.80;;;;;;;;;;5014736;28;20022;-68
2021/01/22 06:36:06;;;;;;;36.33;19.00;;;;;;;;;;5034698;28;20040;-68
2021/01/22 06:38:32;;;;;;;30.52;14.80;;;;;;;;;;5035623;28;20017;-69
2021/01/22 06:40:58;;;;;;;19.60;10.88;;;;;;;;;;5036175;28;20034;-69
2021/01/22 06:43:24;;;;;;;40.63;24.10;;;;;;;;;;5035107;28;20084;-68
2021/01/22 06:45:50;;;;;;;73.30;43.58;;;;;;;;;;5035775;28;20124;-69
2021/01/22 06:48:15;;;;;;;43.47;27.40;;;;;;;;;;5035633;28;20024;-68
2021/01/22 06:50:41;;;;;;;86.65;41.45;;;;;;;;;;5035961;28;20072;-69
2021/01/22 06:53:08;;;;;;;76.05;39.30;;;;;;;;;;5035453;28;20028;-68
2021/01/22 06:55:53;;;;;;;40.05;17.23;;;;;;;;;;5035618;28;20025;-69
2021/01/22 06:58:21;;;;;;;46.42;21.70;;;;;;;;;;5020148;28;20468;-69
2021/01/22 07:00:47;;;;;;;59.85;29.13;;;;;;;;;;5035575;28;20033;-68
2021/01/22 07:03:38;;;;;;;65.18;37.15;;;;;;;;;;5033772;28;20033;-68
2021/01/22 07:06:08;;;;;;;48.85;25.15;;;;;;;;;;5032995;28;20522;-68
2021/01/22 07:08:51;;;;;;;37.80;21.13;;;;;;;;;;5034784;28;20014;-69
2021/01/22 07:11:17;;;;;;;24.70;14.90;;;;;;;;;;5034652;28;20033;-68
2021/01/22 07:13:45;;;;;;;27.92;17.08;;;;;;;;;;5035523;28;20402;-68
2021/01/22 07:16:22;;;;;;;25.63;15.25;;;;;;;;;;5035112;28;20065;-69
2021/01/22 07:19:07;;;;;;;117.43;71.32;;;;;;;;;;5034340;28;20036;-69
2021/01/22 07:21:38;;;;;;;85.95;43.13;;;;;;;;;;5035482;28;20033;-69
2021/01/22 07:24:05;;;;;;;67.13;32.88;;;;;;;;;;5034169;28;20025;-63
2021/01/22 07:26:33;;;;;;;102.25;44.78;;;;;;;;;;5034675;28;20033;-69
2021/01/22 07:29:11;;;;;;;58.33;27.05;;;;;;;;;;5034295;28;20014;-69
2021/01/22 07:31:49;;;;;;;91.70;38.50;;;;;;;;;;5034897;28;20025;-69
2021/01/22 07:34:33;;;;;;;92.60;40.33;;;;;;;;;;5034604;28;20060;-69
2021/01/22 07:36:59;;;;;;;73.28;36.08;;;;;;;;;;5034192;28;20029;-69
2021/01/22 07:39:28;;;;;;;84.63;41.60;;;;;;;;;;5034703;28;20076;-68
2021/01/22 07:42:06;;;;;;;71.22;36.03;;;;;;;;;;5033434;28;20033;-69
2021/01/22 07:44:32;;;;;;;39.13;19.13;;;;;;;;;;5034025;28;20029;-69
2021/01/22 07:46:58;;;;;;;55.55;30.73;;;;;;;;;;5029561;28;20075;-69
2021/01/22 07:49:23;;;;;;;54.45;29.30;;;;;;;;;;5033189;28;20499;-68
2021/01/22 07:51:48;;;;;;;57.92;29.85;;;;;;;;;;5032708;28;20021;-68
2021/01/22 07:54:14;;;;;;;62.20;30.00;;;;;;;;;;5033197;28;20021;-68
2021/01/22 07:56:40;;;;;;;66.45;29.10;;;;;;;;;;5033406;28;20075;-68
2021/01/22 07:59:07;;;;;;;67.07;29.48;;;;;;;;;;5033269;28;20029;-69
2021/01/22 08:01:34;;;;;;;60.20;28.15;;;;;;;;;;5033660;28;20040;-68
2021/01/22 08:03:59;;;;;;;62.05;29.25;;;;;;;;;;5033677;28;20458;-68
2021/01/22 08:06:25;;;;;;;60.40;29.33;;;;;;;;;;5031825;28;20021;-59
2021/01/22 08:09:04;;;;;;;38.65;17.48;;;;;;;;;;5032235;28;20049;-68
2021/01/22 08:11:29;;;;;;;56.50;25.75;;;;;;;;;;5031013;28;20030;-67
2021/01/22 08:13:56;;;;;;;75.38;33.95;;;;;;;;;;5032262;28;20025;-67
2021/01/22 08:16:24;;;;;;;79.25;34.97;;;;;;;;;;5033357;28;20079;-68
2021/01/22 08:18:51;;;;;;;71.85;32.45;;;;;;;;;;5031610;28;20112;-68
2021/01/22 08:21:17;;;;;;;69.60;30.65;;;;;;;;;;5033187;28;20376;-68
2021/01/22 08:23:43;;;;;;;74.10;29.73;;;;;;;;;;5032682;28;20120;-68
2021/01/22 08:26:12;;;;;;;69.13;29.52;;;;;;;;;;5030817;28;20065;-68
2021/01/22 08:28:39;;;;;;;70.93;28.98;;;;;;;;;;5033709;28;20464;-68
2021/01/22 08:31:08;;;;;;;65.95;28.75;;;;;;;;;;5032690;28;20412;-68
2021/01/22 08:33:34;;;;;;;66.60;28.70;;;;;;;;;;5033263;28;20028;-68
2021/01/22 08:36:00;;;;;;;56.65;25.90;;;;;;;;;;5033609;28;20040;-68
2021/01/22 08:38:26;;;;;;;72.55;33.70;;;;;;;;;;5033763;28;20018;-68
2021/01/22 08:40:52;;;;;;;45.70;23.65;;;;;;;;;;5033491;28;20082;-68
2021/01/22 08:43:17;;;;;;;32.28;16.85;;;;;;;;;;5033643;28;20371;-68
2021/01/22 08:46:04;;;;;;;32.85;17.27;;;;;;;;;;5034008;28;20033;-68
2021/01/22 08:48:30;;;;;;;40.38;20.70;;;;;;;;;;5033722;28;20041;-63
2021/01/22 08:50:59;;;;;;;41.42;22.15;;;;;;;;;;5033634;28;20026;-64
2021/01/22 08:53:25;;;;;;;42.20;21.25;;;;;;;;;;5033449;28;20038;-63
2021/01/22 08:56:11;;;;;;;37.42;19.65;;;;;;;;;;5033713;28;20025;-63
2021/01/22 08:58:55;;;;;;;32.65;17.90;;;;;;;;;;5033679;28;20060;-63
2021/01/22 09:01:21;;;;;;;36.65;19.13;;;;;;;;;;5033614;28;20025;-63
2021/01/22 09:03:46;;;;;;;35.25;18.95;;;;;;;;;;5033534;28;20033;-63
2021/01/22 09:06:13;;;;;;;33.35;17.80;;;;;;;;;;5033576;28;20029;-63
2021/01/22 09:08:54;;;;;;;28.27;15.20;;;;;;;;;;5033160;28;20072;-63
2021/01/22 09:11:35;;;;;;;26.17;13.20;;;;;;;;;;5033666;28;20120;-63
2021/01/22 09:14:01;;;;;;;25.73;14.13;;;;;;;;;;5033964;28;20029;-63
2021/01/22 09:16:26;;;;;;;23.85;13.60;;;;;;;;;;5033687;28;20018;-63
2021/01/22 09:18:59;;;;;;;24.83;13.77;;;;;;;;;;5033380;28;20491;-63
2021/01/22 09:21:25;;;;;;;25.20;13.65;;;;;;;;;;5033633;28;20026;-63
2021/01/22 09:23:50;;;;;;;25.92;14.77;;;;;;;;;;5032391;28;20518;-63
2021/01/22 09:26:16;;;;;;;25.95;14.73;;;;;;;;;;5033859;28;20066;-63
2021/01/22 09:28:41;;;;;;;22.92;12.30;;;;;;;;;;5036236;28;20025;-63
2021/01/22 09:31:07;;;;;;;19.25;10.77;;;;;;;;;;5037148;28;20033;-63
2021/01/22 09:33:33;;;;;;;20.02;10.95;;;;;;;;;;5035849;28;20029;-68
2021/01/22 09:35:58;;;;;;;24.75;11.82;;;;;;;;;;5035716;28;20029;-70
2021/01/22 09:38:25;;;;;;;15.93;9.13;;;;;;;;;;5035100;28;20060;-69
2021/01/22 09:40:51;;;;;;;17.40;10.23;;;;;;;;;;5033398;28;20041;-69
2021/01/22 09:43:17;;;;;;;18.83;10.55;;;;;;;;;;5032422;28;20071;-69
2021/01/22 09:45:43;;;;;;;17.52;10.23;;;;;;;;;;5034631;28;20025;-69
2021/01/22 09:48:09;;;;;;;17.83;10.38;;;;;;;;;;5036696;28;20024;-69
2021/01/22 09:50:34;;;;;;;16.40;8.88;;;;;;;;;;5036644;28;20395;-69
2021/01/22 09:53:00;;;;;;;14.95;7.82;;;;;;;;;;5034545;28;20396;-69
2021/01/22 09:55:25;;;;;;;15.10;8.73;;;;;;;;;;5033448;28;20032;-69
2021/01/22 09:57:51;;;;;;;16.38;9.15;;;;;;;;;;5035554;28;20036;-69
2021/01/22 10:00:17;;;;;;;24.25;12.70;;;;;;;;;;5035127;28;20041;-69
2021/01/22 10:02:43;;;;;;;20.13;10.48;;;;;;;;;;5034413;28;20026;-69
2021/01/22 10:05:09;;;;;;;10.35;6.72;;;;;;;;;;5034254;28;20029;-69
2021/01/22 10:07:34;;;;;;;9.85;6.70;;;;;;;;;;5033340;28;20029;-69
2021/01/22 10:10:00;;;;;;;12.23;6.47;;;;;;;;;;5033247;28;20050;-69
2021/01/22 10:12:25;;;;;;;10.68;6.50;;;;;;;;;;5033964;28;20034;-69
2021/01/22 10:14:51;;;;;;;11.45;7.50;;;;;;;;;;5035517;28;20037;-69
2021/01/22 10:17:16;;;;;;;16.08;7.90;;;;;;;;;;5034735;28;20017;-69
2021/01/22 10:19:42;;;;;;;20.60;10.27;;;;;;;;;;5034794;28;20021;-69
2021/01/22 10:22:07;;;;;;;29.83;14.65;;;;;;;;;;5034075;28;20025;-69
2021/01/22 10:24:33;;;;;;;28.55;14.20;;;;;;;;;;5033345;28;20028;-69
2021/01/22 10:26:58;;;;;;;20.27;11.55;;;;;;;;;;5034336;28;20032;-69
2021/01/22 10:29:24;;;;;;;18.67;11.52;;;;;;;;;;5033236;28;20037;-70
2021/01/22 10:31:49;;;;;;;18.95;9.82;;;;;;;;;;5032250;28;20021;-69
2021/01/22 10:34:16;;;;;;;15.88;8.50;;;;;;;;;;5036017;28;20071;-64
2021/01/22 10:36:43;;;;;;;16.35;8.77;;;;;;;;;;5035500;28;20108;-64
2021/01/22 10:39:09;;;;;;;16.27;9.48;;;;;;;;;;5035759;28;20056;-65
2021/01/22 10:41:35;;;;;;;11.65;6.45;;;;;;;;;;5035387;28;20052;-65
2021/01/22 10:44:01;;;;;;;9.75;6.57;;;;;;;;;;5034809;28;20055;-65
2021/01/22 10:46:28;;;;;;;13.02;6.75;;;;;;;;;;5034840;28;20026;-65
2021/01/22 10:48:55;;;;;;;13.02;6.40;;;;;;;;;;5035579;28;20025;-64
2021/01/22 10:51:20;;;;;;;7.32;5.00;;;;;;;;;;5035551;28;20020;-65
2021/01/22 10:53:46;;;;;;;7.68;5.15;;;;;;;;;;5035168;28;20021;-64
2021/01/22 10:56:11;;;;;;;9.82;6.10;;;;;;;;;;5035384;28;20034;-64
2021/01/22 10:58:40;;;;;;;10.10;5.97;;;;;;;;;;5035625;28;20025;-64
2021/01/22 11:01:05;;;;;;;9.75;5.10;;;;;;;;;;5035635;28;20032;-64
2021/01/22 11:03:32;;;;;;;6.65;4.60;;;;;;;;;;5035930;28;20034;-64
2021/01/22 11:05:57;;;;;;;10.95;5.32;;;;;;;;;;5035705;28;20033;-64
2021/01/22 11:08:23;;;;;;;8.95;5.47;;;;;;;;;;5035126;28;20025;-65
2021/01/22 11:10:49;;;;;;;8.75;5.93;;;;;;;;;;5035301;28;20075;-64
2021/01/22 11:13:15;;;;;;;8.55;5.78;;;;;;;;;;5035075;28;20468;-64
2021/01/22 11:15:40;;;;;;;10.93;7.90;;;;;;;;;;5035552;28;20074;-63
2021/01/22 11:18:06;;;;;;;10.82;6.72;;;;;;;;;;5035433;28;20033;-64
2021/01/22 11:20:31;;;;;;;17.33;8.05;;;;;;;;;;5034751;28;20464;-64
2021/01/22 11:22:57;;;;;;;10.77;5.85;;;;;;;;;;5034930;28;20064;-63
2021/01/22 11:25:22;;;;;;;7.40;5.57;;;;;;;;;;5034772;28;20091;-63
2021/01/22 11:27:49;;;;;;;8.95;5.43;;;;;;;;;;5034316;28;20030;-64
2021/01/22 11:30:15;;;;;;;9.18;5.60;;;;;;;;;;5035144;28;20018;-64
2021/01/22 11:32:40;;;;;;;11.55;6.00;;;;;;;;;;5034148;28;20365;-64
2021/01/22 11:35:09;;;;;;;11.50;6.43;;;;;;;;;;5033662;28;20028;-65
2021/01/22 11:37:38;;;;;;;10.95;6.32;;;;;;;;;;5034508;28;20030;-64
2021/01/22 11:40:04;;;;;;;11.85;6.63;;;;;;;;;;5014752;28;20028;-64
2021/01/22 11:42:29;;;;;;;13.38;6.90;;;;;;;;;;5031366;28;20056;-64
2021/01/22 11:44:55;;;;;;;18.58;8.10;;;;;;;;;;5034647;28;20063;-64
2021/01/22 11:47:20;;;;;;;7.93;5.25;;;;;;;;;;5034721;28;20032;-64
2021/01/22 11:49:46;;;;;;;9.63;5.57;;;;;;;;;;5034364;28;20021;-64
2021/01/22 11:52:11;;;;;;;9.63;5.20;;;;;;;;;;5033382;28;20021;-63
2021/01/22 11:54:37;;;;;;;11.70;5.25;;;;;;;;;;5034395;28;20013;-64
2021/01/22 11:57:04;;;;;;;13.07;6.10;;;;;;;;;;5034667;28;20400;-64
2021/01/22 11:59:30;;;;;;;13.93;6.78;;;;;;;;;;5034846;28;20029;-64
2021/01/22 12:01:55;;;;;;;18.10;7.78;;;;;;;;;;5034533;28;20026;-64
2021/01/22 12:04:21;;;;;;;14.00;6.95;;;;;;;;;;5034300;28;20426;-63
2021/01/22 12:06:46;;;;;;;12.55;6.95;;;;;;;;;;5034683;28;20037;-64
2021/01/22 12:09:12;;;;;;;12.82;6.53;;;;;;;;;;5034105;28;20033;-64
2021/01/22 12:11:37;;;;;;;16.52;8.45;;;;;;;;;;5034402;28;20113;-64
2021/01/22 12:14:03;;;;;;;52.38;26.20;;;;;;;;;;5034370;28;20030;-64
2021/01/22 12:16:29;;;;;;;87.82;51.35;;;;;;;;;;5034043;28;20025;-64
2021/01/22 12:18:54;;;;;;;167.40;95.28;;;;;;;;;;5034149;28;20057;-65
2021/01/22 12:21:20;;;;;;;121.03;74.88;;;;;;;;;;5033955;28;20033;-65
2021/01/22 12:23:45;;;;;;;89.05;53.50;;;;;;;;;;5034162;28;20468;-64
2021/01/22 12:26:11;;;;;;;37.33;23.10;;;;;;;;;;5033942;28;20036;-64
2021/01/22 12:28:37;;;;;;;22.67;13.68;;;;;;;;;;5034127;28;20013;-64
2021/01/22 12:31:03;;;;;;;24.25;12.85;;;;;;;;;;5033943;28;20452;-64
2021/01/22 12:33:29;;;;;;;23.48;12.63;;;;;;;;;;5033958;28;20017;-65
2021/01/22 12:35:54;;;;;;;22.45;11.55;;;;;;;;;;5033918;28;20164;-65
2021/01/22 12:38:20;;;;;;;23.48;11.98;;;;;;;;;;5034230;28;20045;-65
2021/01/22 12:40:45;;;;;;;22.08;10.65;;;;;;;;;;5033594;28;20034;-65
2021/01/22 12:43:11;;;;;;;25.02;11.68;;;;;;;;;;5031777;28;20491;-65
2021/01/22 12:45:37;;;;;;;27.05;12.40;;;;;;;;;;5031901;28;20040;-65
2021/01/22 12:48:04;;;;;;;23.52;11.70;;;;;;;;;;5033304;28;20032;-65
2021/01/22 12:50:31;;;;;;;28.45;13.40;;;;;;;;;;5033771;28;20029;-65
2021/01/22 12:52:58;;;;;;;57.95;28.88;;;;;;;;;;5033493;28;20022;-65
2021/01/22 12:55:26;;;;;;;41.28;20.48;;;;;;;;;;5033022;28;20034;-65
2021/01/22 12:57:51;;;;;;;37.53;19.67;;;;;;;;;;5012048;28;20014;-65
2021/01/22 13:00:17;;;;;;;54.05;26.67;;;;;;;;;;5027695;28;20416;-65
2021/01/22 13:02:43;;;;;;;43.80;22.98;;;;;;;;;;5023364;28;20033;-65
2021/01/22 13:05:12;;;;;;;67.00;33.70;;;;;;;;;;5033213;28;20044;-65
2021/01/22 13:07:41;;;;;;;60.30;31.42;;;;;;;;;;5033201;28;20010;-65
2021/01/22 13:10:09;;;;;;;69.65;33.97;;;;;;;;;;5033061;28;20045;-65
2021/01/22 13:12:34;;;;;;;75.07;42.75;;;;;;;;;;5032766;28;20068;-64
2021/01/22 13:15:00;;;;;;;92.50;47.42;;;;;;;;;;5033189;28;20014;-64
2021/01/22 13:17:28;;;;;;;97.88;49.03;;;;;;;;;;5031967;28;20041;-65
2021/01/22 13:19:57;;;;;;;91.35;45.78;;;;;;;;;;5033459;28;20018;-65
2021/01/22 13:22:23;;;;;;;93.55;49.13;;;;;;;;;;5032940;28;20116;-65
2021/01/22 13:24:48;;;;;;;90.78;47.42;;;;;;;;;;5032953;28;20128;-65
2021/01/22 13:27:14;;;;;;;88.32;46.25;;;;;;;;;;5033347;28;20029;-65
2021/01/22 13:29:39;;;;;;;93.40;47.45;;;;;;;;;;5033067;28;20037;-65
2021/01/22 13:32:05;;;;;;;66.05;35.70;;;;;;;;;;5032115;28;20388;-65
2021/01/22 13:34:32;;;;;;;61.33;32.97;;;;;;;;;;5032861;28;20026;-65
2021/01/22 13:36:58;;;;;;;57.00;32.42;;;;;;;;;;5032920;28;20080;-64
2021/01/22 13:39:23;;;;;;;52.05;29.45;;;;;;;;;;5033110;28;20013;-65
2021/01/22 13:41:49;;;;;;;50.17;29.02;;;;;;;;;;5033140;28;20036;-65
2021/01/22 13:44:15;;;;;;;43.72;24.13;;;;;;;;;;5032952;28;20098;-64
2021/01/22 13:46:41;;;;;;;35.53;20.08;;;;;;;;;;5033153;28;20032;-65
2021/01/22 13:49:06;;;;;;;34.80;19.73;;;;;;;;;;5033061;28;20017;-65
2021/01/22 13:51:32;;;;;;;33.15;16.58;;;;;;;;;;5032818;28;20112;-65
2021/01/22 13:53:57;;;;;;;32.72;17.20;;;;;;;;;;5033319;28;20018;-66
2021/01/22 13:56:23;;;;;;;37.40;20.17;;;;;;;;;;5031433;28;20396;-66
2021/01/22 13:58:49;;;;;;;45.17;22.83;;;;;;;;;;5033175;28;20030;-65
2021/01/22 14:01:15;;;;;;;47.08;22.90;;;;;;;;;;5032800;28;20037;-66
2021/01/22 14:03:40;;;;;;;48.13;25.20;;;;;;;;;;5032748;28;20025;-66
2021/01/22 14:06:06;;;;;;;58.22;31.75;;;;;;;;;;5032871;28;20372;-65
2021/01/22 14:08:32;;;;;;;160.07;68.35;;;;;;;;;;5031149;28;20041;-65
2021/01/22 14:10:57;;;;;;;211.60;94.82;;;;;;;;;;5031511;28;20038;-65
2021/01/22 14:13:23;;;;;;;166.00;79.82;;;;;;;;;;5036119;28;20029;-65
2021/01/22 14:15:48;;;;;;;175.65;97.28;;;;;;;;;;5036441;28;20037;-66
2021/01/22 14:18:16;;;;;;;170.40;102.82;;;;;;;;;;5036558;28;20052;-66
2021/01/22 14:20:41;;;;;;;147.85;87.72;;;;;;;;;;5036353;28;20032;-66
2021/01/22 14:23:07;;;;;;;125.72;72.00;;;;;;;;;;5036385;28;20479;-65